Time;durP1;ratioP1;P1;durP2;ratioP2;P2;SDS_P1;SDS_P2;PMS_P1;PMS_P2;Temp;Humidity;BMP_temperature;BMP_pressure;BME280_temperature;BME280_humidity;BME280_pressure;Samples;Min_cycle;Max_cycle;Signal;HPM_P1;HPM_P2
2022/03/31 00:01:24;;;;;;;12.82;6.47;;;;;;;3.53;39.76;99841.75;5072369;28;20127;-71
2022/03/31 00:03:50;;;;;;;14.05;6.45;;;;;;;3.76;39.12;99845.00;5072888;28;20131;-71
2022/03/31 00:06:17;;;;;;;15.25;7.38;;;;;;;3.56;39.32;99844.16;5073043;28;20559;-71
2022/03/31 00:08:43;;;;;;;13.38;6.47;;;;;;;3.30;40.47;99844.63;5072816;28;20051;-71
2022/03/31 00:11:10;;;;;;;12.68;6.38;;;;;;;3.37;39.91;99845.75;5073250;28;20465;-72
2022/03/31 00:13:36;;;;;;;16.98;6.30;;;;;;;3.56;39.42;99852.09;5062884;28;20044;-70
2022/03/31 00:16:03;;;;;;;16.70;6.57;;;;;;;3.60;39.30;99853.50;5072346;28;20059;-71
2022/03/31 00:18:31;;;;;;;20.73;6.78;;;;;;;3.54;39.21;99846.91;5073386;28;20049;-71
2022/03/31 00:20:57;;;;;;;22.77;7.07;;;;;;;3.69;39.04;99835.91;5071699;28;20040;-71
2022/03/31 00:23:24;;;;;;;12.73;6.85;;;;;;;3.49;39.37;99848.31;5073516;28;20064;-72
2022/03/31 00:25:50;;;;;;;14.73;6.68;;;;;;;3.84;38.75;99835.38;5064608;28;20052;-71
2022/03/31 00:28:17;;;;;;;16.73;6.28;;;;;;;3.46;39.79;99848.59;5073340;28;20075;-71
2022/03/31 00:30:44;;;;;;;16.63;6.93;;;;;;;3.58;39.41;99847.47;5072424;28;20084;-71
2022/03/31 00:33:10;;;;;;;18.92;7.22;;;;;;;3.71;38.65;99842.75;5072236;28;20099;-71
2022/03/31 00:35:37;;;;;;;14.65;6.30;;;;;;;3.77;38.54;99839.56;5072101;28;20040;-72
2022/03/31 00:38:03;;;;;;;16.88;6.95;;;;;;;3.41;38.83;99842.84;5072602;28;20075;-71
2022/03/31 00:40:31;;;;;;;20.65;6.63;;;;;;;3.38;39.48;99842.16;5069790;28;20476;-72
2022/03/31 00:42:59;;;;;;;13.65;6.22;;;;;;;3.34;39.43;99848.69;5073538;28;20133;-72
2022/03/31 00:45:46;;;;;;;12.30;5.80;;;;;;;3.32;39.24;99836.53;5071793;28;20442;-71
2022/03/31 00:48:15;;;;;;;12.95;6.30;;;;;;;3.64;38.79;99836.34;5072426;28;20048;-73
2022/03/31 00:50:42;;;;;;;12.38;6.60;;;;;;;3.15;39.52;99845.97;5072434;28;20060;-73
2022/03/31 00:53:08;;;;;;;12.68;6.07;;;;;;;3.27;39.59;99842.22;5072842;28;20078;-71
2022/03/31 00:55:54;;;;;;;14.25;6.03;;;;;;;3.37;38.75;99839.63;5071846;28;20045;-72
2022/03/31 00:58:21;;;;;;;12.52;5.78;;;;;;;2.88;40.20;99844.72;5072601;28;20131;-72
2022/03/31 01:00:47;;;;;;;21.30;6.55;;;;;;;3.23;39.01;99843.47;5072076;28;20127;-71
2022/03/31 01:03:14;;;;;;;14.27;6.53;;;;;;;3.28;39.05;99845.75;5071827;28;20435;-72
2022/03/31 01:09:21;;;;;;;11.93;5.35;;;;;;;2.89;39.83;99837.63;5071195;28;20114;-71
2022/03/31 01:11:48;;;;;;;18.02;6.07;;;;;;;3.36;38.60;99838.78;5071601;28;20123;-72
2022/03/31 01:14:15;;;;;;;12.55;5.22;;;;;;;3.37;38.59;99837.81;5070804;28;20053;-71
2022/03/31 01:16:42;;;;;;;17.48;5.63;;;;;;;3.35;38.61;99841.59;5061363;28;20548;-72
2022/03/31 01:19:10;;;;;;;12.75;6.18;;;;;;;3.01;39.01;99833.91;5071971;28;20071;-71
2022/03/31 01:21:41;;;;;;;11.93;5.78;;;;;;;3.01;39.03;99846.34;5072078;28;20075;-71
2022/03/31 01:24:10;;;;;;;19.17;6.07;;;;;;;2.92;39.44;99834.72;5068777;28;20071;-71
2022/03/31 01:26:41;;;;;;;15.10;5.65;;;;;;;2.63;39.77;99842.53;5071348;28;20071;-72
2022/03/31 01:29:10;;;;;;;16.45;5.72;;;;;;;2.60;39.65;99832.19;5071708;28;20048;-71
2022/03/31 01:31:38;;;;;;;11.65;6.10;;;;;;;2.78;39.36;99833.25;5053988;28;20075;-71
2022/03/31 01:34:07;;;;;;;14.98;6.43;;;;;;;2.53;40.00;99833.69;5070115;28;20510;-71
2022/03/31 01:36:36;;;;;;;12.07;6.57;;;;;;;2.80;39.52;99836.63;5070851;28;20495;-71
2022/03/31 01:39:04;;;;;;;16.42;6.63;;;;;;;2.54;39.54;99840.66;5071550;28;20056;-70
2022/03/31 01:41:31;;;;;;;20.77;6.10;;;;;;;2.61;40.36;99839.16;5071799;28;20040;-71
2022/03/31 01:43:58;;;;;;;18.30;7.28;;;;;;;2.98;38.86;99846.59;5071225;28;20055;-71
2022/03/31 01:46:24;;;;;;;15.80;6.22;;;;;;;2.35;40.51;99841.38;5072142;28;20040;-72
2022/03/31 01:48:52;;;;;;;16.45;6.03;;;;;;;2.39;40.07;99843.63;5071588;28;20044;-71
2022/03/31 01:51:19;;;;;;;20.83;6.18;;;;;;;3.07;39.09;99845.81;5071088;28;20048;-72
2022/03/31 01:53:45;;;;;;;17.67;6.07;;;;;;;2.78;39.56;99843.00;5071022;28;20071;-71
2022/03/31 01:56:13;;;;;;;20.90;6.05;;;;;;;2.28;40.32;99843.69;5052965;28;20072;-72
2022/03/31 01:58:40;;;;;;;16.65;6.40;;;;;;;3.05;38.73;99847.75;5068466;28;20309;-72
2022/03/31 02:01:06;;;;;;;12.68;5.10;;;;;;;2.21;40.41;99842.53;5051239;28;20132;-72
2022/03/31 02:03:33;;;;;;;15.52;6.03;;;;;;;2.59;40.02;99849.06;5070687;28;20048;-72
2022/03/31 02:06:00;;;;;;;13.65;5.40;;;;;;;2.36;40.60;99849.16;5072260;28;20052;-72
2022/03/31 02:08:27;;;;;;;10.52;5.32;;;;;;;2.50;39.91;99849.81;5070362;28;20439;-71
2022/03/31 02:10:53;;;;;;;12.48;5.00;;;;;;;2.48;39.84;99843.81;5070934;28;20090;-72
2022/03/31 02:13:19;;;;;;;15.40;5.05;;;;;;;2.39;40.29;99850.72;5070325;28;20499;-72
2022/03/31 02:15:46;;;;;;;11.38;4.95;;;;;;;2.21;40.71;99846.97;5070041;28;20068;-72
2022/03/31 02:18:13;;;;;;;13.80;5.45;;;;;;;2.29;40.16;99849.81;5070503;28;20485;-72
2022/03/31 02:20:41;;;;;;;9.65;4.55;;;;;;;2.46;40.08;99851.06;5070769;28;20127;-71
2022/03/31 02:23:08;;;;;;;15.82;5.03;;;;;;;2.05;40.79;99842.94;5069621;28;20053;-71
2022/03/31 02:25:34;;;;;;;12.50;4.82;;;;;;;2.24;40.54;99836.16;5070837;28;20064;-72
2022/03/31 02:28:01;;;;;;;11.05;4.97;;;;;;;1.92;41.28;99844.88;5071259;28;20128;-72
2022/03/31 02:30:29;;;;;;;8.25;4.45;;;;;;;1.94;40.86;99845.66;5070114;28;20504;-72
2022/03/31 02:32:56;;;;;;;8.55;4.50;;;;;;;1.94;41.01;99845.66;5069800;28;20048;-72
2022/03/31 02:35:23;;;;;;;9.23;3.88;;;;;;;2.08;40.72;99847.16;5069091;28;20131;-73
2022/03/31 02:37:49;;;;;;;12.38;4.72;;;;;;;2.20;40.11;99848.78;5069474;28;20076;-72
2022/03/31 02:40:16;;;;;;;15.15;4.13;;;;;;;1.96;40.44;99854.31;5069384;28;20046;-72
2022/03/31 02:42:43;;;;;;;11.02;4.90;;;;;;;2.02;40.44;99856.41;5069432;28;20124;-71
2022/03/31 02:45:10;;;;;;;13.57;3.92;;;;;;;2.15;40.36;99856.25;5068716;28;20454;-73
2022/03/31 02:47:36;;;;;;;10.77;4.65;;;;;;;1.89;41.02;99851.28;5069855;28;20068;-72
2022/03/31 02:50:04;;;;;;;10.50;4.07;;;;;;;1.80;40.93;99846.75;5068167;28;20572;-71
2022/03/31 02:55:24;;;;;;;10.18;5.10;;;;;;;1.80;41.00;99854.69;5071113;28;20044;-72
2022/03/31 02:55:28;;;;;;;16.15;4.70;;;;;;;1.54;41.57;99846.19;5067231;28;20211;-72
2022/03/31 02:57:56;;;;;;;11.57;4.47;;;;;;;1.71;40.67;99843.06;5069485;28;20075;-72
2022/03/31 03:00:23;;;;;;;10.35;4.13;;;;;;;1.44;41.50;99845.28;5068856;28;20179;-71
2022/03/31 03:02:50;;;;;;;12.07;4.88;;;;;;;1.39;41.54;99845.63;5070911;28;20135;-72
2022/03/31 03:05:17;;;;;;;10.93;4.88;;;;;;;1.85;40.49;99844.53;5068428;28;20550;-71
2022/03/31 03:07:48;;;;;;;12.68;4.40;;;;;;;1.41;41.20;99845.53;5069944;28;20047;-74
2022/03/31 03:10:14;;;;;;;13.75;4.28;;;;;;;1.24;41.73;99857.44;5066966;28;20478;-71
2022/03/31 03:12:41;;;;;;;9.73;4.22;;;;;;;1.59;40.89;99843.19;5069024;28;20131;-71
2022/03/31 03:15:09;;;;;;;12.68;4.63;;;;;;;1.72;40.23;99844.72;5068180;28;20072;-71
2022/03/31 03:17:41;;;;;;;11.25;4.70;;;;;;;1.29;41.44;99836.75;5068462;28;20074;-71
2022/03/31 03:20:13;;;;;;;11.02;4.63;;;;;;;1.07;41.34;99832.34;5067850;28;20487;-71
2022/03/31 03:22:43;;;;;;;;;;;;;;;1.42;41.13;99841.91;5070051;28;20045;-70
2022/03/31 03:25:11;;;;;;;14.68;5.18;;;;;;;1.35;40.69;99849.50;5069805;28;19989;-72
2022/03/31 03:27:38;;;;;;;10.10;4.53;;;;;;;1.68;39.83;99838.00;5071210;28;20139;-71
2022/03/31 03:30:06;;;;;;;10.27;4.43;;;;;;;1.47;40.89;99845.00;5072329;28;20140;-71
2022/03/31 03:32:34;;;;;;;15.40;3.97;;;;;;;1.46;40.39;99848.63;5074433;28;20445;-71
2022/03/31 03:35:00;;;;;;;10.90;4.78;;;;;;;1.49;40.68;99843.09;5073703;28;20147;-71
2022/03/31 03:37:27;;;;;;;9.90;4.90;;;;;;;1.61;39.97;99838.63;5062048;28;20147;-70
2022/03/31 03:39:53;;;;;;;13.85;4.80;;;;;;;1.51;40.32;99840.31;5071556;28;20599;-71
2022/03/31 03:42:20;;;;;;;9.38;4.43;;;;;;;1.18;40.93;99839.41;5071772;28;20516;-71
2022/03/31 03:44:46;;;;;;;13.02;5.10;;;;;;;1.42;40.27;99840.09;5072077;28;20148;-70
2022/03/31 03:47:13;;;;;;;10.77;4.40;;;;;;;0.85;41.77;99835.84;5071461;28;20129;-71
2022/03/31 03:49:40;;;;;;;9.80;4.70;;;;;;;1.03;40.96;99835.34;5071455;28;20048;-70
2022/03/31 03:52:07;;;;;;;11.32;4.10;;;;;;;1.14;40.75;99838.81;5072725;28;20064;-70
2022/03/31 03:54:33;;;;;;;15.98;5.15;;;;;;;1.17;40.79;99828.00;5073276;28;20149;-71
2022/03/31 03:56:59;;;;;;;11.90;4.40;;;;;;;1.14;40.41;99824.78;5072802;28;20127;-71
2022/03/31 03:59:26;;;;;;;8.43;4.38;;;;;;;0.97;40.94;99834.88;5072225;28;20041;-70
2022/03/31 04:01:52;;;;;;;7.50;3.88;;;;;;;0.77;41.45;99835.56;5065065;28;20048;-71
2022/03/31 04:04:19;;;;;;;13.27;4.85;;;;;;;0.76;41.82;99834.75;5071199;28;20048;-71
2022/03/31 04:06:49;;;;;;;12.02;4.65;;;;;;;1.27;40.40;99829.94;5071312;28;20044;-71
2022/03/31 04:09:15;;;;;;;17.48;5.25;;;;;;;0.65;41.53;99825.97;5072916;28;20068;-74
2022/03/31 04:11:42;;;;;;;16.90;4.43;;;;;;;0.74;41.83;99828.72;5056047;28;20457;-71
2022/03/31 04:14:08;;;;;;;11.13;4.03;;;;;;;0.95;40.96;99834.16;5073109;28;20139;-71
2022/03/31 04:16:35;;;;;;;14.60;4.82;;;;;;;0.69;41.08;99822.97;5074302;28;20070;-70
2022/03/31 04:19:08;;;;;;;6.53;3.42;;;;;;;0.43;41.61;99832.88;5073544;28;20068;-70
2022/03/31 04:21:36;;;;;;;8.57;3.53;;;;;;;0.67;41.82;99824.03;5073594;28;20131;-69
2022/03/31 04:24:04;;;;;;;11.18;4.53;;;;;;;0.90;40.97;99828.38;5074328;28;20075;-70
2022/03/31 04:26:31;;;;;;;9.25;4.18;;;;;;;0.83;41.25;99827.19;5068455;28;20041;-70
2022/03/31 04:28:57;;;;;;;8.43;3.42;;;;;;;0.37;41.82;99828.09;5070865;28;20542;-71
2022/03/31 04:31:24;;;;;;;9.45;4.13;;;;;;;0.55;41.96;99832.91;5067123;28;22105;-70
2022/03/31 04:33:50;;;;;;;11.90;3.22;;;;;;;0.87;41.06;99827.78;5072787;28;20048;-71
2022/03/31 04:36:17;;;;;;;9.80;3.88;;;;;;;0.46;41.45;99822.09;5073166;28;20128;-71
2022/03/31 04:38:45;;;;;;;11.85;4.00;;;;;;;0.28;41.89;99831.41;5072765;28;20067;-71
2022/03/31 04:41:11;;;;;;;9.90;4.43;;;;;;;0.72;41.30;99821.91;5069769;28;20503;-70
2022/03/31 04:43:38;;;;;;;8.60;4.25;;;;;;;0.45;41.51;99830.97;5063714;28;20151;-70
2022/03/31 04:46:05;;;;;;;9.40;4.03;;;;;;;0.73;41.41;99829.69;5071898;28;20094;-70
2022/03/31 04:48:34;;;;;;;7.28;3.72;;;;;;;0.92;40.51;99838.84;5073031;28;20055;-71
2022/03/31 04:51:02;;;;;;;10.00;3.38;;;;;;;0.24;42.31;99845.81;5072082;28;20048;-71
2022/03/31 04:53:28;;;;;;;9.05;3.75;;;;;;;0.77;40.90;99840.84;5070145;28;20064;-70
2022/03/31 04:55:55;;;;;;;10.25;3.92;;;;;;;0.78;40.81;99847.84;5071754;28;20500;-71
2022/03/31 04:58:24;;;;;;;7.78;3.88;;;;;;;0.56;41.40;99843.34;5070866;28;20139;-71
2022/03/31 05:00:51;;;;;;;7.32;4.18;;;;;;;0.40;41.56;99848.97;5070854;28;20385;-71
2022/03/31 05:03:17;;;;;;;12.70;3.72;;;;;;;0.60;41.31;99839.50;5070974;28;20049;-70
2022/03/31 05:05:44;;;;;;;16.45;4.13;;;;;;;0.28;41.94;99839.34;5071667;28;20334;-71
2022/03/31 05:08:11;;;;;;;11.55;3.85;;;;;;;0.19;42.13;99837.38;5070421;28;20094;-71
2022/03/31 05:10:39;;;;;;;7.82;3.25;;;;;;;0.14;42.29;99842.16;5071366;28;20120;-71
2022/03/31 05:13:05;;;;;;;12.43;3.60;;;;;;;0.33;41.70;99847.75;5071130;28;20075;-71
2022/03/31 05:15:32;;;;;;;10.55;4.05;;;;;;;0.45;41.71;99846.81;5071729;28;20215;-71
2022/03/31 05:18:00;;;;;;;12.90;4.10;;;;;;;0.50;41.23;99852.59;5071084;28;20044;-71
2022/03/31 05:20:26;;;;;;;8.02;3.20;;;;;;;0.45;41.53;99857.38;5071345;28;20227;-70
2022/03/31 05:22:53;;;;;;;10.20;3.50;;;;;;;0.16;42.16;99853.47;5072006;28;20064;-71
2022/03/31 05:25:19;;;;;;;13.95;3.60;;;;;;;-0.04;42.61;99866.31;5072066;28;20492;-70
2022/03/31 05:27:47;;;;;;;10.68;3.92;;;;;;;0.52;41.45;99861.22;5071412;28;20086;-70
2022/03/31 05:30:19;;;;;;;9.95;3.95;;;;;;;0.24;42.08;99859.00;5072460;28;20455;-71
2022/03/31 05:32:46;;;;;;;10.73;3.80;;;;;;;0.18;42.06;99868.19;5071839;28;20049;-71
2022/03/31 05:35:13;;;;;;;9.18;3.47;;;;;;;0.61;41.11;99864.13;5071921;28;20048;-72
2022/03/31 05:37:41;;;;;;;9.40;3.58;;;;;;;-0.20;43.16;99855.22;5071934;28;20094;-70
2022/03/31 05:40:10;;;;;;;11.82;3.42;;;;;;;0.27;42.29;99856.13;5072694;28;20071;-71
2022/03/31 05:42:37;;;;;;;8.02;3.25;;;;;;;0.19;42.06;99851.44;5071764;28;20102;-71
2022/03/31 05:45:06;;;;;;;11.65;3.97;;;;;;;0.42;41.46;99857.59;5071189;28;20055;-72
2022/03/31 05:47:33;;;;;;;9.23;3.45;;;;;;;0.00;42.27;99851.94;5072136;28;20048;-71
2022/03/31 05:49:59;;;;;;;11.10;3.78;;;;;;;0.05;42.54;99855.09;5061456;28;20492;-72
2022/03/31 05:52:31;;;;;;;8.52;3.60;;;;;;;0.70;41.34;99856.31;5070347;28;20074;-72
2022/03/31 05:55:00;;;;;;;14.77;3.72;;;;;;;0.40;41.72;99864.81;5071305;28;20060;-72
2022/03/31 05:57:26;;;;;;;7.75;3.25;;;;;;;0.25;41.76;99866.78;5052535;28;20102;-72
2022/03/31 05:59:53;;;;;;;9.75;3.67;;;;;;;-0.09;42.70;99871.06;5070111;28;20132;-72
2022/03/31 06:02:19;;;;;;;14.60;4.20;;;;;;;0.33;42.22;99868.88;5074884;28;20072;-72
2022/03/31 06:05:07;;;;;;;14.65;3.50;;;;;;;0.24;42.53;99865.09;5080783;28;20052;-72
2022/03/31 06:07:33;;;;;;;15.95;3.80;;;;;;;0.58;41.50;99872.28;5080931;28;20048;-71
2022/03/31 06:10:00;;;;;;;10.13;3.70;;;;;;;0.85;40.89;99874.56;5081139;28;20052;-72
2022/03/31 06:12:26;;;;;;;9.20;3.88;;;;;;;0.65;41.07;99874.34;5054428;28;20155;-72
2022/03/31 06:14:53;;;;;;;7.53;3.42;;;;;;;0.91;40.61;99872.31;5050382;28;20139;-71
2022/03/31 06:17:25;;;;;;;9.13;3.55;;;;;;;0.56;41.23;99866.25;5050056;28;20247;-71
2022/03/31 06:19:52;;;;;;;25.08;3.55;;;;;;;0.76;41.07;99862.94;5050765;28;20458;-72
2022/03/31 06:22:19;;;;;;;8.65;3.55;;;;;;;0.67;41.10;99866.28;5051338;28;20128;-71
2022/03/31 06:24:45;;;;;;;18.77;3.67;;;;;;;0.49;41.69;99868.53;5050363;28;20045;-72
2022/03/31 06:27:11;;;;;;;13.55;4.07;;;;;;;0.81;41.05;99868.69;5050291;28;20060;-72
2022/03/31 06:29:40;;;;;;;13.85;3.63;;;;;;;0.49;41.83;99873.81;5050960;28;20137;-72
2022/03/31 06:32:07;;;;;;;11.43;3.78;;;;;;;0.88;41.24;99879.63;5048525;28;20077;-72
2022/03/31 06:34:36;;;;;;;12.88;3.97;;;;;;;0.76;41.07;99870.88;5050852;28;20041;-72
2022/03/31 06:37:03;;;;;;;14.00;4.25;;;;;;;1.10;40.49;99877.00;5050408;28;20495;-72
2022/03/31 06:39:29;;;;;;;14.63;4.10;;;;;;;1.12;40.36;99868.94;5050218;28;20128;-71
2022/03/31 06:41:55;;;;;;;7.43;3.55;;;;;;;1.00;41.07;99876.06;5049670;28;20442;-72
2022/03/31 06:44:22;;;;;;;11.43;4.30;;;;;;;0.92;40.76;99876.66;5050134;28;20057;-71
2022/03/31 06:46:48;;;;;;;12.43;3.90;;;;;;;0.79;40.87;99870.63;5049646;28;20055;-71
2022/03/31 06:49:15;;;;;;;13.23;3.72;;;;;;;0.98;40.09;99886.72;5049831;28;20051;-72
2022/03/31 06:51:43;;;;;;;11.45;4.78;;;;;;;1.20;40.21;99885.06;5049672;28;20151;-72
2022/03/31 06:54:10;;;;;;;16.98;4.55;;;;;;;0.76;40.75;99881.41;5050083;28;20068;-72
2022/03/31 06:56:36;;;;;;;13.73;4.03;;;;;;;0.72;41.10;99874.69;5050923;28;20120;-72
2022/03/31 06:59:03;;;;;;;11.93;4.38;;;;;;;1.24;40.49;99875.94;5050367;28;20465;-72
2022/03/31 07:01:30;;;;;;;9.07;4.32;;;;;;;1.56;39.50;99872.53;5050317;28;20044;-72
2022/03/31 07:03:58;;;;;;;10.50;4.00;;;;;;;1.75;38.74;99872.72;5049861;28;20124;-71
2022/03/31 07:06:24;;;;;;;10.57;4.25;;;;;;;1.70;39.38;99881.03;5048883;28;20497;-71
2022/03/31 07:08:51;;;;;;;8.25;4.65;;;;;;;2.28;38.09;99885.19;5049700;28;20525;-71
2022/03/31 07:11:17;;;;;;;11.90;4.53;;;;;;;2.03;38.56;99878.44;5053903;28;20477;-71
2022/03/31 07:13:44;;;;;;;16.65;4.47;;;;;;;1.80;38.74;99869.72;5069870;28;20537;-71
2022/03/31 07:16:11;;;;;;;10.35;3.90;;;;;;;2.11;38.15;99862.78;5070319;28;20441;-71
2022/03/31 07:18:37;;;;;;;14.35;4.68;;;;;;;2.36;37.33;99875.63;5071759;28;20045;-73
2022/03/31 07:21:04;;;;;;;11.82;4.50;;;;;;;2.25;37.38;99875.69;5070438;28;20128;-72
2022/03/31 07:23:30;;;;;;;13.77;4.70;;;;;;;1.81;38.41;99871.38;5071262;28;20068;-72
2022/03/31 07:25:57;;;;;;;13.25;4.95;;;;;;;1.85;38.46;99865.69;5070871;28;20044;-72
2022/03/31 07:28:24;;;;;;;10.93;4.55;;;;;;;1.97;37.73;99868.38;5070284;28;20139;-72
2022/03/31 07:30:51;;;;;;;12.05;5.07;;;;;;;2.44;36.99;99867.03;5070104;28;20127;-72
2022/03/31 07:33:20;;;;;;;12.60;5.07;;;;;;;2.87;36.93;99866.91;5068433;28;20045;-72
2022/03/31 07:35:48;;;;;;;13.93;4.65;;;;;;;3.04;35.69;99856.69;5070933;28;20120;-72
2022/03/31 07:38:16;;;;;;;8.95;5.13;;;;;;;3.11;35.99;99852.53;5069983;28;20114;-73
2022/03/31 07:40:43;;;;;;;9.90;4.50;;;;;;;2.66;36.31;99855.50;5070681;28;20132;-73
2022/03/31 07:43:09;;;;;;;21.17;4.95;;;;;;;2.96;36.61;99853.84;5067358;28;20041;-73
2022/03/31 07:45:38;;;;;;;12.73;4.57;;;;;;;2.71;36.46;99834.75;5069587;28;20051;-72
2022/03/31 07:48:06;;;;;;;16.02;4.05;;;;;;;3.18;35.52;99852.81;5070356;28;20075;-73
2022/03/31 07:50:34;;;;;;;14.65;4.90;;;;;;;3.55;34.97;99853.06;5070383;28;20069;-73
2022/03/31 07:53:02;;;;;;;12.82;5.65;;;;;;;4.33;34.16;99846.00;5071047;28;20170;-74
2022/03/31 07:55:29;;;;;;;12.63;3.90;;;;;;;3.90;34.36;99849.06;5072293;28;20047;-73
2022/03/31 07:57:56;;;;;;;16.77;5.43;;;;;;;4.51;33.11;99849.63;5070235;28;20041;-73
2022/03/31 08:00:24;;;;;;;14.25;4.53;;;;;;;4.54;33.22;99857.31;5070106;28;20044;-74
2022/03/31 08:02:52;;;;;;;13.93;4.90;;;;;;;4.42;33.33;99847.84;5069913;28;20074;-74
2022/03/31 08:05:21;;;;;;;8.55;4.40;;;;;;;4.22;33.43;99843.50;5069097;28;20048;-74
2022/03/31 08:07:48;;;;;;;10.32;4.38;;;;;;;4.41;33.30;99848.81;5068532;28;20074;-74
2022/03/31 08:10:16;;;;;;;10.65;5.53;;;;;;;4.60;33.12;99850.59;5070368;28;20041;-73
2022/03/31 08:12:45;;;;;;;10.05;4.65;;;;;;;3.86;34.30;99844.06;5070194;28;20055;-74
2022/03/31 08:15:15;;;;;;;10.27;4.60;;;;;;;3.65;34.76;99843.31;5073242;28;20044;-74
2022/03/31 08:17:43;;;;;;;16.38;4.88;;;;;;;4.28;33.56;99851.75;5068138;28;20060;-74
2022/03/31 08:20:11;;;;;;;10.20;4.05;;;;;;;5.41;31.77;99850.03;5074579;28;20535;-74
2022/03/31 08:22:39;;;;;;;18.60;4.45;;;;;;;4.18;33.43;99840.28;5074253;28;20044;-74
2022/03/31 08:25:10;;;;;;;17.55;5.57;;;;;;;4.57;32.99;99834.94;5074286;28;20048;-74
2022/03/31 08:27:38;;;;;;;18.05;4.75;;;;;;;5.27;31.73;99844.22;5073694;28;20072;-74
2022/03/31 08:30:08;;;;;;;10.60;5.03;;;;;;;4.54;33.05;99849.34;5073432;28;20051;-74
2022/03/31 08:32:38;;;;;;;11.27;4.13;;;;;;;5.22;31.75;99843.00;5057037;28;20078;-74
2022/03/31 08:35:07;;;;;;;14.23;5.05;;;;;;;5.54;31.46;99850.50;5065271;28;20040;-74
2022/03/31 08:37:35;;;;;;;12.25;4.75;;;;;;;5.65;31.48;99844.97;5072992;28;20095;-74
2022/03/31 08:40:04;;;;;;;21.25;4.93;;;;;;;6.29;30.24;99839.63;5071610;28;20044;-74
2022/03/31 08:42:31;;;;;;;9.27;4.40;;;;;;;4.91;32.17;99837.09;5050839;28;20047;-74
2022/03/31 08:44:59;;;;;;;8.77;4.35;;;;;;;5.04;32.30;99838.44;5067918;28;20045;-74
2022/03/31 08:47:27;;;;;;;13.30;4.25;;;;;;;4.84;32.82;99842.16;5062945;28;20071;-73
2022/03/31 08:50:15;;;;;;;15.98;4.68;;;;;;;5.41;31.84;99845.53;5056959;28;20052;-74
2022/03/31 08:52:41;;;;;;;9.20;4.85;;;;;;;5.25;31.62;99845.34;5051864;28;20482;-74
2022/03/31 08:55:09;;;;;;;13.50;5.95;;;;;;;5.00;32.39;99846.84;5071630;28;20059;-74
2022/03/31 08:57:46;;;;;;;13.20;4.35;;;;;;;5.18;32.00;99837.13;5072517;28;20082;-74
2022/03/31 09:00:16;;;;;;;13.48;5.25;;;;;;;5.56;31.80;99842.38;5062637;28;20104;-74
2022/03/31 09:02:56;;;;;;;36.40;8.13;;;;;;;6.70;29.93;99841.63;5050531;28;20160;-74
2022/03/31 09:05:24;;;;;;;13.10;4.93;;;;;;;5.96;30.16;99849.97;5051785;28;20116;-74
2022/03/31 09:07:57;;;;;;;12.68;5.38;;;;;;;5.61;31.24;99830.31;5052335;28;20136;-74
2022/03/31 09:10:27;;;;;;;10.60;4.72;;;;;;;5.77;31.80;99832.31;5052836;28;20052;-74
2022/03/31 09:12:53;;;;;;;16.88;4.55;;;;;;;5.81;31.27;99833.69;5072801;28;20045;-74
2022/03/31 09:15:31;;;;;;;11.60;4.82;;;;;;;5.43;32.41;99826.78;5072238;28;20044;-74
2022/03/31 09:17:59;;;;;;;17.40;4.65;;;;;;;6.28;31.37;99833.44;5073255;28;20453;-74
2022/03/31 09:20:39;;;;;;;15.02;5.65;;;;;;;5.64;32.11;99835.34;5072392;28;20045;-74
2022/03/31 09:23:14;;;;;;;14.55;5.38;;;;;;;6.60;30.53;99837.34;5073292;28;20052;-74
2022/03/31 09:25:41;;;;;;;18.27;4.95;;;;;;;6.71;30.35;99835.28;5069723;28;20062;-74
2022/03/31 09:28:15;;;;;;;16.38;5.80;;;;;;;6.33;31.16;99835.69;5070525;28;20401;-74
2022/03/31 09:30:47;;;;;;;12.38;4.75;;;;;;;5.83;31.89;99830.84;5071346;28;20076;-74
2022/03/31 09:33:24;;;;;;;;;;;;;;;6.47;31.03;99840.44;5072978;28;20045;-74
2022/03/31 09:36:05;;;;;;;13.43;5.30;;;;;;;6.54;30.82;99841.50;5072337;28;20035;-74
2022/03/31 09:38:36;;;;;;;20.58;6.15;;;;;;;6.34;30.87;99832.84;5070887;28;20049;-74
2022/03/31 09:41:19;;;;;;;17.20;5.82;;;;;;;6.67;30.42;99835.75;5071402;28;20575;-74
2022/03/31 09:43:48;;;;;;;20.42;4.90;;;;;;;5.99;31.49;99845.16;5054399;28;20067;-74
2022/03/31 09:46:24;;;;;;;18.17;5.47;;;;;;;6.41;30.94;99839.22;5071514;28;20511;-74
2022/03/31 09:48:57;;;;;;;9.55;4.38;;;;;;;5.93;31.70;99826.28;5071568;28;20051;-74
2022/03/31 09:51:25;;;;;;;18.95;5.25;;;;;;;6.85;30.52;99828.53;5073273;28;20048;-74
2022/03/31 09:53:53;;;;;;;11.10;5.10;;;;;;;6.00;31.28;99828.19;5072184;28;20106;-74
2022/03/31 09:56:26;;;;;;;13.88;5.93;;;;;;;6.91;30.25;99824.38;5071355;28;20071;-74
2022/03/31 09:58:54;;;;;;;15.80;4.82;;;;;;;6.28;30.98;99812.16;5071993;28;20040;-74
2022/03/31 10:01:20;;;;;;;19.58;5.10;;;;;;;7.70;29.12;99822.34;5065428;28;20119;-75
2022/03/31 10:03:48;;;;;;;13.90;5.50;;;;;;;7.53;29.11;99824.16;5072431;28;20049;-74
2022/03/31 10:06:16;;;;;;;14.32;5.88;;;;;;;6.94;30.21;99818.72;5067954;28;20051;-74
2022/03/31 10:08:44;;;;;;;15.20;5.47;;;;;;;6.79;30.50;99831.81;5069790;28;20041;-74
2022/03/31 10:11:17;;;;;;;10.13;4.70;;;;;;;6.73;30.57;99829.78;5071022;28;20125;-74
2022/03/31 10:14:03;;;;;;;16.63;5.18;;;;;;;7.09;30.08;99835.84;5070743;28;20075;-74
2022/03/31 10:16:40;;;;;;;12.20;5.60;;;;;;;6.84;30.70;99828.69;5071027;28;20049;-74
2022/03/31 10:19:08;;;;;;;14.60;5.03;;;;;;;7.35;29.69;99816.25;5071345;28;20071;-74
2022/03/31 10:21:35;;;;;;;15.18;5.50;;;;;;;7.70;28.97;99820.50;5059524;28;20056;-74
2022/03/31 10:27:01;;;;;;;12.10;4.88;;;;;;;8.14;28.39;99809.59;5068382;28;20447;-74
2022/03/31 10:29:40;;;;;;;9.23;3.77;;;;;;;8.92;26.79;99794.75;5068528;28;20101;-74
2022/03/31 10:32:18;;;;;;;13.98;5.00;;;;;;;7.13;29.40;99809.66;5068730;28;20366;-74
2022/03/31 10:34:48;;;;;;;29.92;5.97;;;;;;;7.30;29.51;99798.06;5051933;28;20064;-74
2022/03/31 10:37:18;;;;;;;16.95;5.10;;;;;;;7.49;29.37;99802.28;5067306;28;20078;-74
2022/03/31 10:39:55;;;;;;;17.38;4.75;;;;;;;7.51;29.23;99791.47;5068959;28;20044;-73
2022/03/31 10:42:23;;;;;;;12.20;5.40;;;;;;;7.70;28.60;99799.16;5070764;28;20098;-74
2022/03/31 10:45:02;;;;;;;12.95;4.78;;;;;;;7.97;28.87;99798.06;5068533;28;20049;-74
2022/03/31 10:47:34;;;;;;;9.10;4.60;;;;;;;7.19;29.28;99791.19;5068775;28;20041;-74
2022/03/31 10:50:02;;;;;;;11.10;5.00;;;;;;;7.41;29.11;99794.25;5068234;28;20072;-74
2022/03/31 10:52:29;;;;;;;15.35;5.47;;;;;;;8.56;27.84;99782.66;5070742;28;20447;-74
2022/03/31 10:55:06;;;;;;;19.05;5.28;;;;;;;8.79;27.51;99787.31;5069845;28;20086;-74
2022/03/31 10:57:44;;;;;;;16.83;5.70;;;;;;;7.81;28.55;99790.00;5071092;28;20420;-74
2022/03/31 11:00:16;;;;;;;12.90;4.90;;;;;;;7.97;28.53;99792.72;5070979;28;20386;-74
2022/03/31 11:02:45;;;;;;;10.52;4.60;;;;;;;8.25;27.74;99782.53;5070843;28;20541;-74
2022/03/31 11:05:33;;;;;;;15.82;4.95;;;;;;;7.38;29.12;99789.25;5071765;28;20147;-74
2022/03/31 11:08:06;;;;;;;13.48;5.50;;;;;;;7.95;28.45;99784.06;5071377;28;20056;-74
2022/03/31 11:10:50;;;;;;;14.73;5.50;;;;;;;7.30;29.38;99782.06;5071151;28;20082;-74
2022/03/31 11:13:18;;;;;;;21.95;5.10;;;;;;;7.76;28.76;99782.50;5059820;28;20134;-74
2022/03/31 11:15:54;;;;;;;17.80;4.93;;;;;;;7.36;29.33;99778.75;5070869;28;20056;-74
2022/03/31 11:18:21;;;;;;;11.20;4.82;;;;;;;7.42;28.73;99774.56;5068880;28;20040;-74
2022/03/31 11:20:59;;;;;;;13.45;5.10;;;;;;;7.96;28.39;99775.03;5068923;28;20044;-74
2022/03/31 11:23:27;;;;;;;10.23;4.70;;;;;;;7.51;28.85;99772.78;5070019;28;20036;-74
2022/03/31 11:25:53;;;;;;;18.30;4.72;;;;;;;7.21;29.60;99772.34;5070202;28;20055;-74
2022/03/31 11:28:20;;;;;;;17.75;5.30;;;;;;;7.78;28.61;99775.16;5060375;28;20127;-74
2022/03/31 11:30:48;;;;;;;9.35;4.32;;;;;;;7.46;29.25;99778.59;5058935;28;20064;-74
2022/03/31 11:33:15;;;;;;;12.30;4.60;;;;;;;7.04;29.97;99770.63;5065770;28;20407;-74
2022/03/31 11:35:43;;;;;;;13.88;5.53;;;;;;;6.97;30.10;99765.09;5069702;28;20044;-74
2022/03/31 11:38:17;;;;;;;17.02;5.82;;;;;;;7.16;29.72;99761.34;5053993;28;20099;-74
2022/03/31 11:40:47;;;;;;;19.48;5.80;;;;;;;7.56;29.08;99765.94;5070896;28;20049;-74
2022/03/31 11:43:16;;;;;;;13.27;5.60;;;;;;;7.28;29.63;99767.22;5070313;28;20044;-74
2022/03/31 11:45:53;;;;;;;14.30;5.38;;;;;;;6.44;30.80;99755.50;5067404;28;20127;-74
2022/03/31 11:48:35;;;;;;;15.67;5.63;;;;;;;7.70;29.20;99760.94;5072230;28;20535;-74